sensor_id;sensor_type;location;lat;lon;timestamp;temperature;humidity
41435;DHT22;27177;22.262;114.192;2022-12-07T00:01:26;16.40;99.90
41435;DHT22;27177;22.262;114.192;2022-12-07T00:03:54;16.40;99.90
41435;DHT22;27177;22.262;114.192;2022-12-07T00:06:27;16.40;99.90
41435;DHT22;27177;22.262;114.192;2022-12-07T00:08:53;16.40;99.90
41435;DHT22;27177;22.262;114.192;2022-12-07T00:11:22;16.40;99.90
41435;DHT22;27177;22.262;114.192;2022-12-07T00:13:57;16.30;99.90
41435;DHT22;27177;22.262;114.192;2022-12-07T00:16:27;16.40;99.90
41435;DHT22;27177;22.262;114.192;2022-12-07T00:18:54;16.40;99.90
41435;DHT22;27177;22.262;114.192;2022-12-07T00:21:23;16.50;99.90
41435;DHT22;27177;22.262;114.192;2022-12-07T00:23:52;16.50;99.90
41435;DHT22;27177;22.262;114.192;2022-12-07T00:26:24;16.50;99.90
41435;DHT22;27177;22.262;114.192;2022-12-07T00:28:51;16.60;99.90
41435;DHT22;27177;22.262;114.192;2022-12-07T00:31:20;16.60;99.90
41435;DHT22;27177;22.262;114.192;2022-12-07T00:33:49;16.70;99.90
41435;DHT22;27177;22.262;114.192;2022-12-07T00:36:21;16.80;99.90
41435;DHT22;27177;22.262;114.192;2022-12-07T00:38:48;16.90;99.90
41435;DHT22;27177;22.262;114.192;2022-12-07T00:41:18;17.00;99.90
41435;DHT22;27177;22.262;114.192;2022-12-07T00:43:46;17.00;99.90
41435;DHT22;27177;22.262;114.192;2022-12-07T00:46:14;17.00;99.90
41435;DHT22;27177;22.262;114.192;2022-12-07T00:48:41;17.10;99.90
41435;DHT22;27177;22.262;114.192;2022-12-07T00:51:10;17.10;99.90
41435;DHT22;27177;22.262;114.192;2022-12-07T00:53:37;17.20;99.90
41435;DHT22;27177;22.262;114.192;2022-12-07T00:58:56;17.30;99.90
41435;DHT22;27177;22.262;114.192;2022-12-07T01:01:25;17.40;99.90
41435;DHT22;27177;22.262;114.192;2022-12-07T01:03:52;17.40;99.90
41435;DHT22;27177;22.262;114.192;2022-12-07T01:06:21;17.50;99.90
41435;DHT22;27177;22.262;114.192;2022-12-07T01:08:48;17.50;99.90
41435;DHT22;27177;22.262;114.192;2022-12-07T01:11:17;17.60;99.90
41435;DHT22;27177;22.262;114.192;2022-12-07T01:13:45;17.70;99.90
41435;DHT22;27177;22.262;114.192;2022-12-07T01:16:14;17.70;99.90
41435;DHT22;27177;22.262;114.192;2022-12-07T01:18:41;17.70;99.90
41435;DHT22;27177;22.262;114.192;2022-12-07T01:21:14;17.70;99.90
41435;DHT22;27177;22.262;114.192;2022-12-07T01:23:42;17.80;99.90
41435;DHT22;27177;22.262;114.192;2022-12-07T01:26:16;17.70;99.90
41435;DHT22;27177;22.262;114.192;2022-12-07T01:28:44;17.70;99.90
41435;DHT22;27177;22.262;114.192;2022-12-07T01:31:13;17.80;99.90
41435;DHT22;27177;22.262;114.192;2022-12-07T01:33:50;17.80;99.90
41435;DHT22;27177;22.262;114.192;2022-12-07T01:36:22;17.80;99.90
41435;DHT22;27177;22.262;114.192;2022-12-07T01:38:51;17.80;99.90
41435;DHT22;27177;22.262;114.192;2022-12-07T01:41:20;17.80;99.90
41435;DHT22;27177;22.262;114.192;2022-12-07T01:44:26;17.70;99.90
41435;DHT22;27177;22.262;114.192;2022-12-07T01:47:01;17.80;99.90
41435;DHT22;27177;22.262;114.192;2022-12-07T01:49:31;17.80;99.90
41435;DHT22;27177;22.262;114.192;2022-12-07T01:52:21;17.80;99.90
41435;DHT22;27177;22.262;114.192;2022-12-07T01:54:47;17.90;99.90
41435;DHT22;27177;22.262;114.192;2022-12-07T01:57:17;17.90;99.90
41435;DHT22;27177;22.262;114.192;2022-12-07T01:59:47;17.90;99.90
41435;DHT22;27177;22.262;114.192;2022-12-07T02:02:27;17.90;99.90
41435;DHT22;27177;22.262;114.192;2022-12-07T02:04:59;17.90;99.90
41435;DHT22;27177;22.262;114.192;2022-12-07T02:07:27;17.90;99.90
41435;DHT22;27177;22.262;114.192;2022-12-07T02:09:55;18.00;99.90
41435;DHT22;27177;22.262;114.192;2022-12-07T02:12:23;18.00;99.90
41435;DHT22;27177;22.262;114.192;2022-12-07T02:14:51;18.00;99.90
41435;DHT22;27177;22.262;114.192;2022-12-07T02:30:47;18.00;99.90
41435;DHT22;27177;22.262;114.192;2022-12-07T02:33:24;18.10;99.90
41435;DHT22;27177;22.262;114.192;2022-12-07T02:41:37;18.30;99.90
41435;DHT22;27177;22.262;114.192;2022-12-07T02:44:13;18.40;99.90
41435;DHT22;27177;22.262;114.192;2022-12-07T02:46:54;18.30;99.90
41435;DHT22;27177;22.262;114.192;2022-12-07T02:49:27;18.40;99.90
41435;DHT22;27177;22.262;114.192;2022-12-07T02:51:54;18.40;99.90
41435;DHT22;27177;22.262;114.192;2022-12-07T02:54:22;18.40;99.90
41435;DHT22;27177;22.262;114.192;2022-12-07T02:56:57;18.40;99.90
41435;DHT22;27177;22.262;114.192;2022-12-07T03:05:20;18.40;99.90
41435;DHT22;27177;22.262;114.192;2022-12-07T03:11:03;18.40;99.90
41435;DHT22;27177;22.262;114.192;2022-12-07T03:16:55;18.40;99.90
41435;DHT22;27177;22.262;114.192;2022-12-07T03:18:59;18.40;99.90
41435;DHT22;27177;22.262;114.192;2022-12-07T03:21:40;18.50;99.90
41435;DHT22;27177;22.262;114.192;2022-12-07T03:24:21;18.50;99.90
41435;DHT22;27177;22.262;114.192;2022-12-07T03:27:01;18.50;99.90
41435;DHT22;27177;22.262;114.192;2022-12-07T03:29:34;18.40;99.90
41435;DHT22;27177;22.262;114.192;2022-12-07T03:32:11;18.50;99.90
41435;DHT22;27177;22.262;114.192;2022-12-07T03:40:12;18.80;99.90
41435;DHT22;27177;22.262;114.192;2022-12-07T03:42:44;18.90;99.90
41435;DHT22;27177;22.262;114.192;2022-12-07T03:45:12;19.00;99.90
41435;DHT22;27177;22.262;114.192;2022-12-07T03:50:38;18.80;99.90
41435;DHT22;27177;22.262;114.192;2022-12-07T03:55:43;18.80;99.90
41435;DHT22;27177;22.262;114.192;2022-12-07T04:00:46;18.80;99.90
41435;DHT22;27177;22.262;114.192;2022-12-07T04:05:55;18.80;99.90
41435;DHT22;27177;22.262;114.192;2022-12-07T04:08:22;18.70;99.90
41435;DHT22;27177;22.262;114.192;2022-12-07T04:10:48;18.70;99.90
41435;DHT22;27177;22.262;114.192;2022-12-07T04:13:15;18.60;99.90
41435;DHT22;27177;22.262;114.192;2022-12-07T04:15:42;18.60;99.90
41435;DHT22;27177;22.262;114.192;2022-12-07T04:18:09;18.50;99.90
41435;DHT22;27177;22.262;114.192;2022-12-07T04:20:35;18.50;99.90
41435;DHT22;27177;22.262;114.192;2022-12-07T04:23:03;18.50;99.90
41435;DHT22;27177;22.262;114.192;2022-12-07T04:25:29;18.60;99.90
41435;DHT22;27177;22.262;114.192;2022-12-07T04:27:56;18.60;99.90
41435;DHT22;27177;22.262;114.192;2022-12-07T04:30:23;18.60;99.90
41435;DHT22;27177;22.262;114.192;2022-12-07T04:32:50;18.60;99.90
41435;DHT22;27177;22.262;114.192;2022-12-07T04:35:16;18.70;99.90
41435;DHT22;27177;22.262;114.192;2022-12-07T04:37:43;18.80;99.90
41435;DHT22;27177;22.262;114.192;2022-12-07T04:40:10;18.80;99.90
41435;DHT22;27177;22.262;114.192;2022-12-07T04:42:42;18.80;99.90
41435;DHT22;27177;22.262;114.192;2022-12-07T04:45:09;18.80;99.90
41435;DHT22;27177;22.262;114.192;2022-12-07T04:47:36;18.80;99.90
41435;DHT22;27177;22.262;114.192;2022-12-07T04:50:03;18.80;99.90
41435;DHT22;27177;22.262;114.192;2022-12-07T04:52:30;18.80;99.90
41435;DHT22;27177;22.262;114.192;2022-12-07T04:54:57;18.80;99.90
41435;DHT22;27177;22.262;114.192;2022-12-07T04:57:24;18.80;99.90
41435;DHT22;27177;22.262;114.192;2022-12-07T04:59:51;18.80;99.90
41435;DHT22;27177;22.262;114.192;2022-12-07T05:02:17;18.90;99.90
41435;DHT22;27177;22.262;114.192;2022-12-07T05:04:44;18.90;99.90
41435;DHT22;27177;22.262;114.192;2022-12-07T05:07:11;19.00;99.90
41435;DHT22;27177;22.262;114.192;2022-12-07T05:09:38;19.00;99.90
41435;DHT22;27177;22.262;114.192;2022-12-07T05:12:04;19.10;99.90
41435;DHT22;27177;22.262;114.192;2022-12-07T05:14:31;19.20;99.90
41435;DHT22;27177;22.262;114.192;2022-12-07T05:16:58;19.20;99.90
41435;DHT22;27177;22.262;114.192;2022-12-07T05:19:26;19.10;99.90
41435;DHT22;27177;22.262;114.192;2022-12-07T05:21:53;19.10;99.90
41435;DHT22;27177;22.262;114.192;2022-12-07T05:24:20;19.10;99.90
41435;DHT22;27177;22.262;114.192;2022-12-07T05:26:46;19.10;99.90
41435;DHT22;27177;22.262;114.192;2022-12-07T05:29:15;19.20;99.90
41435;DHT22;27177;22.262;114.192;2022-12-07T05:31:43;19.20;99.90
41435;DHT22;27177;22.262;114.192;2022-12-07T05:34:10;19.20;99.90
41435;DHT22;27177;22.262;114.192;2022-12-07T05:36:37;19.10;99.90
41435;DHT22;27177;22.262;114.192;2022-12-07T05:39:04;19.10;99.90
41435;DHT22;27177;22.262;114.192;2022-12-07T05:41:30;19.20;99.90
41435;DHT22;27177;22.262;114.192;2022-12-07T05:44:15;19.20;99.90
41435;DHT22;27177;22.262;114.192;2022-12-07T05:46:42;19.10;99.90
41435;DHT22;27177;22.262;114.192;2022-12-07T05:49:09;19.20;99.90
41435;DHT22;27177;22.262;114.192;2022-12-07T05:51:36;19.20;99.90
41435;DHT22;27177;22.262;114.192;2022-12-07T05:54:03;19.20;99.90
41435;DHT22;27177;22.262;114.192;2022-12-07T05:56:30;19.10;99.90
41435;DHT22;27177;22.262;114.192;2022-12-07T05:59:17;19.10;99.90
41435;DHT22;27177;22.262;114.192;2022-12-07T06:02:12;19.10;99.90
41435;DHT22;27177;22.262;114.192;2022-12-07T06:04:42;19.10;99.90
41435;DHT22;27177;22.262;114.192;2022-12-07T06:07:11;19.10;99.90
41435;DHT22;27177;22.262;114.192;2022-12-07T06:09:38;19.10;99.90
41435;DHT22;27177;22.262;114.192;2022-12-07T06:12:06;19.10;99.90
41435;DHT22;27177;22.262;114.192;2022-12-07T06:14:51;19.00;99.90
41435;DHT22;27177;22.262;114.192;2022-12-07T06:17:28;19.00;99.90
41435;DHT22;27177;22.262;114.192;2022-12-07T06:19:54;19.00;99.90
41435;DHT22;27177;22.262;114.192;2022-12-07T06:22:21;19.00;99.90
41435;DHT22;27177;22.262;114.192;2022-12-07T06:24:48;19.00;99.90
41435;DHT22;27177;22.262;114.192;2022-12-07T06:27:15;19.10;99.90
41435;DHT22;27177;22.262;114.192;2022-12-07T06:29:42;19.20;99.90
41435;DHT22;27177;22.262;114.192;2022-12-07T06:32:08;19.30;99.90
41435;DHT22;27177;22.262;114.192;2022-12-07T06:34:35;19.30;99.90
41435;DHT22;27177;22.262;114.192;2022-12-07T06:37:02;19.30;99.90
41435;DHT22;27177;22.262;114.192;2022-12-07T06:39:29;19.30;99.90
41435;DHT22;27177;22.262;114.192;2022-12-07T06:41:57;19.40;99.90
41435;DHT22;27177;22.262;114.192;2022-12-07T06:44:24;19.50;99.90
41435;DHT22;27177;22.262;114.192;2022-12-07T06:46:52;19.30;99.90
41435;DHT22;27177;22.262;114.192;2022-12-07T06:49:19;19.40;99.90
41435;DHT22;27177;22.262;114.192;2022-12-07T06:51:45;19.40;99.90
41435;DHT22;27177;22.262;114.192;2022-12-07T06:56:42;19.30;99.90
41435;DHT22;27177;22.262;114.192;2022-12-07T06:59:09;19.30;99.90
41435;DHT22;27177;22.262;114.192;2022-12-07T07:04:09;19.30;99.90
41435;DHT22;27177;22.262;114.192;2022-12-07T07:06:36;19.30;99.90
41435;DHT22;27177;22.262;114.192;2022-12-07T07:09:03;19.20;99.90
41435;DHT22;27177;22.262;114.192;2022-12-07T07:11:30;19.20;99.90
41435;DHT22;27177;22.262;114.192;2022-12-07T07:13:56;19.10;99.90
41435;DHT22;27177;22.262;114.192;2022-12-07T07:16:29;19.20;99.90
41435;DHT22;27177;22.262;114.192;2022-12-07T07:18:57;19.20;99.90
41435;DHT22;27177;22.262;114.192;2022-12-07T07:21:23;19.20;99.90
41435;DHT22;27177;22.262;114.192;2022-12-07T07:23:50;19.20;99.90
41435;DHT22;27177;22.262;114.192;2022-12-07T07:26:18;19.10;99.90
41435;DHT22;27177;22.262;114.192;2022-12-07T07:28:44;19.10;99.90
41435;DHT22;27177;22.262;114.192;2022-12-07T07:31:12;19.20;99.90
41435;DHT22;27177;22.262;114.192;2022-12-07T07:33:38;19.10;99.90
41435;DHT22;27177;22.262;114.192;2022-12-07T07:36:05;19.00;99.90
41435;DHT22;27177;22.262;114.192;2022-12-07T07:38:32;19.10;99.90
41435;DHT22;27177;22.262;114.192;2022-12-07T07:40:59;19.10;99.90
41435;DHT22;27177;22.262;114.192;2022-12-07T07:43:26;19.10;99.90
41435;DHT22;27177;22.262;114.192;2022-12-07T07:45:52;19.20;99.90
41435;DHT22;27177;22.262;114.192;2022-12-07T07:48:19;19.20;99.90
41435;DHT22;27177;22.262;114.192;2022-12-07T07:50:46;19.10;99.90
41435;DHT22;27177;22.262;114.192;2022-12-07T07:53:13;19.10;99.90
41435;DHT22;27177;22.262;114.192;2022-12-07T07:55:40;19.10;99.90
41435;DHT22;27177;22.262;114.192;2022-12-07T07:58:06;19.00;99.90
41435;DHT22;27177;22.262;114.192;2022-12-07T08:00:33;19.00;99.90
41435;DHT22;27177;22.262;114.192;2022-12-07T08:03:00;19.00;99.90
41435;DHT22;27177;22.262;114.192;2022-12-07T08:05:26;19.00;99.90
41435;DHT22;27177;22.262;114.192;2022-12-07T08:07:53;19.00;99.90
41435;DHT22;27177;22.262;114.192;2022-12-07T08:10:20;18.90;99.90
41435;DHT22;27177;22.262;114.192;2022-12-07T08:12:47;18.90;99.90
41435;DHT22;27177;22.262;114.192;2022-12-07T08:15:32;18.80;99.90
41435;DHT22;27177;22.262;114.192;2022-12-07T08:17:59;18.80;99.90
41435;DHT22;27177;22.262;114.192;2022-12-07T08:20:26;18.80;99.90
41435;DHT22;27177;22.262;114.192;2022-12-07T08:22:52;18.80;99.90
41435;DHT22;27177;22.262;114.192;2022-12-07T08:25:19;18.70;99.90
41435;DHT22;27177;22.262;114.192;2022-12-07T08:27:46;18.70;99.90
41435;DHT22;27177;22.262;114.192;2022-12-07T08:30:14;18.70;99.90
41435;DHT22;27177;22.262;114.192;2022-12-07T08:32:40;18.60;99.90
41435;DHT22;27177;22.262;114.192;2022-12-07T08:35:08;18.60;99.90
41435;DHT22;27177;22.262;114.192;2022-12-07T08:37:35;18.60;99.90
41435;DHT22;27177;22.262;114.192;2022-12-07T08:40:03;18.50;99.90
41435;DHT22;27177;22.262;114.192;2022-12-07T08:42:31;18.50;99.90
41435;DHT22;27177;22.262;114.192;2022-12-07T08:45:09;18.50;99.90
41435;DHT22;27177;22.262;114.192;2022-12-07T08:48:00;18.40;99.90
41435;DHT22;27177;22.262;114.192;2022-12-07T08:50:27;18.40;99.90
41435;DHT22;27177;22.262;114.192;2022-12-07T08:52:57;18.30;99.90
41435;DHT22;27177;22.262;114.192;2022-12-07T08:55:26;18.30;99.90
41435;DHT22;27177;22.262;114.192;2022-12-07T08:57:54;18.30;99.90
41435;DHT22;27177;22.262;114.192;2022-12-07T09:00:21;18.30;99.90
41435;DHT22;27177;22.262;114.192;2022-12-07T09:02:48;18.20;99.90
41435;DHT22;27177;22.262;114.192;2022-12-07T09:05:15;18.20;99.90
41435;DHT22;27177;22.262;114.192;2022-12-07T09:07:44;18.20;99.90
41435;DHT22;27177;22.262;114.192;2022-12-07T09:12:46;18.20;99.90
41435;DHT22;27177;22.262;114.192;2022-12-07T09:15:13;18.20;99.90
41435;DHT22;27177;22.262;114.192;2022-12-07T09:17:39;18.10;99.90
41435;DHT22;27177;22.262;114.192;2022-12-07T09:20:07;18.10;99.90
41435;DHT22;27177;22.262;114.192;2022-12-07T09:22:33;18.10;99.90
41435;DHT22;27177;22.262;114.192;2022-12-07T09:25:01;18.10;99.90
41435;DHT22;27177;22.262;114.192;2022-12-07T09:27:28;18.00;99.90
41435;DHT22;27177;22.262;114.192;2022-12-07T09:29:55;18.00;99.90
41435;DHT22;27177;22.262;114.192;2022-12-07T09:32:22;17.90;99.90
41435;DHT22;27177;22.262;114.192;2022-12-07T09:34:49;17.90;99.90
41435;DHT22;27177;22.262;114.192;2022-12-07T09:37:15;17.80;99.90
41435;DHT22;27177;22.262;114.192;2022-12-07T09:39:42;17.80;99.90
41435;DHT22;27177;22.262;114.192;2022-12-07T09:42:11;17.80;99.90
41435;DHT22;27177;22.262;114.192;2022-12-07T09:44:44;17.80;99.90
41435;DHT22;27177;22.262;114.192;2022-12-07T09:47:11;17.80;99.90
41435;DHT22;27177;22.262;114.192;2022-12-07T09:49:38;17.80;99.90
41435;DHT22;27177;22.262;114.192;2022-12-07T09:54:36;17.60;99.90
41435;DHT22;27177;22.262;114.192;2022-12-07T09:57:05;17.60;99.90
41435;DHT22;27177;22.262;114.192;2022-12-07T09:59:32;17.60;99.90
41435;DHT22;27177;22.262;114.192;2022-12-07T10:02:34;17.50;99.90
41435;DHT22;27177;22.262;114.192;2022-12-07T10:05:01;17.50;99.90
41435;DHT22;27177;22.262;114.192;2022-12-07T10:07:30;17.40;99.90
41435;DHT22;27177;22.262;114.192;2022-12-07T10:09:57;17.40;99.90
41435;DHT22;27177;22.262;114.192;2022-12-07T10:12:23;17.30;99.90
41435;DHT22;27177;22.262;114.192;2022-12-07T10:17:48;17.20;99.90
41435;DHT22;27177;22.262;114.192;2022-12-07T10:20:21;17.10;99.90
41435;DHT22;27177;22.262;114.192;2022-12-07T10:22:56;17.20;99.90
41435;DHT22;27177;22.262;114.192;2022-12-07T10:25:27;17.10;99.90
41435;DHT22;27177;22.262;114.192;2022-12-07T10:28:15;17.20;99.90
41435;DHT22;27177;22.262;114.192;2022-12-07T10:30:58;17.20;99.90
41435;DHT22;27177;22.262;114.192;2022-12-07T10:33:29;17.30;99.90
41435;DHT22;27177;22.262;114.192;2022-12-07T10:35:57;17.30;99.90
41435;DHT22;27177;22.262;114.192;2022-12-07T10:38:26;17.30;99.90
41435;DHT22;27177;22.262;114.192;2022-12-07T10:41:13;17.30;99.90
41435;DHT22;27177;22.262;114.192;2022-12-07T10:43:53;17.30;99.90
41435;DHT22;27177;22.262;114.192;2022-12-07T10:49:21;17.30;99.90
41435;DHT22;27177;22.262;114.192;2022-12-07T10:52:45;17.30;99.90
41435;DHT22;27177;22.262;114.192;2022-12-07T11:04:03;17.30;99.90
41435;DHT22;27177;22.262;114.192;2022-12-07T11:12:55;17.30;99.90
41435;DHT22;27177;22.262;114.192;2022-12-07T11:15:29;17.30;99.90
41435;DHT22;27177;22.262;114.192;2022-12-07T11:18:14;17.30;99.90
41435;DHT22;27177;22.262;114.192;2022-12-07T11:20:52;17.30;99.90
41435;DHT22;27177;22.262;114.192;2022-12-07T11:23:42;17.30;99.90
41435;DHT22;27177;22.262;114.192;2022-12-07T11:37:32;17.10;99.90
41435;DHT22;27177;22.262;114.192;2022-12-07T11:40:25;17.10;99.90
41435;DHT22;27177;22.262;114.192;2022-12-07T11:46:11;17.00;99.90
41435;DHT22;27177;22.262;114.192;2022-12-07T11:48:46;17.10;99.90
41435;DHT22;27177;22.262;114.192;2022-12-07T11:51:18;17.10;99.90
41435;DHT22;27177;22.262;114.192;2022-12-07T11:56:20;17.20;99.90
41435;DHT22;27177;22.262;114.192;2022-12-07T12:01:18;17.20;99.90
41435;DHT22;27177;22.262;114.192;2022-12-07T12:06:34;17.20;99.90
41435;DHT22;27177;22.262;114.192;2022-12-07T12:22:40;17.20;99.90
41435;DHT22;27177;22.262;114.192;2022-12-07T12:27:46;17.20;99.90
41435;DHT22;27177;22.262;114.192;2022-12-07T12:30:31;17.20;99.90
41435;DHT22;27177;22.262;114.192;2022-12-07T12:33:13;17.10;99.90
41435;DHT22;27177;22.262;114.192;2022-12-07T12:35:41;17.10;99.90
41435;DHT22;27177;22.262;114.192;2022-12-07T12:44:02;17.00;99.90
41435;DHT22;27177;22.262;114.192;2022-12-07T12:54:27;16.90;99.90
41435;DHT22;27177;22.262;114.192;2022-12-07T12:59:32;16.90;99.90
41435;DHT22;27177;22.262;114.192;2022-12-07T13:02:09;16.90;99.90
41435;DHT22;27177;22.262;114.192;2022-12-07T13:10:34;16.80;99.90
41435;DHT22;27177;22.262;114.192;2022-12-07T13:24:09;16.80;99.90
41435;DHT22;27177;22.262;114.192;2022-12-07T13:26:19;16.80;99.90
41435;DHT22;27177;22.262;114.192;2022-12-07T13:29:09;16.80;99.90
41435;DHT22;27177;22.262;114.192;2022-12-07T13:34:27;16.80;99.90
41435;DHT22;27177;22.262;114.192;2022-12-07T13:36:51;16.80;99.90
41435;DHT22;27177;22.262;114.192;2022-12-07T13:39:21;16.80;99.90
41435;DHT22;27177;22.262;114.192;2022-12-07T13:41:53;16.80;99.90
41435;DHT22;27177;22.262;114.192;2022-12-07T13:44:22;16.80;99.90
41435;DHT22;27177;22.262;114.192;2022-12-07T13:49:26;16.80;99.90
41435;DHT22;27177;22.262;114.192;2022-12-07T13:51:54;16.80;99.90
41435;DHT22;27177;22.262;114.192;2022-12-07T13:54:23;16.80;99.90
41435;DHT22;27177;22.262;114.192;2022-12-07T13:56:51;16.80;99.90
41435;DHT22;27177;22.262;114.192;2022-12-07T13:59:24;16.80;99.90
41435;DHT22;27177;22.262;114.192;2022-12-07T14:01:52;16.80;99.90
41435;DHT22;27177;22.262;114.192;2022-12-07T14:04:37;16.80;99.90
41435;DHT22;27177;22.262;114.192;2022-12-07T14:07:26;16.80;99.90
41435;DHT22;27177;22.262;114.192;2022-12-07T14:09:55;16.70;99.90
41435;DHT22;27177;22.262;114.192;2022-12-07T14:12:24;16.70;99.90
41435;DHT22;27177;22.262;114.192;2022-12-07T14:14:51;16.70;99.90
41435;DHT22;27177;22.262;114.192;2022-12-07T14:17:24;16.70;99.90
41435;DHT22;27177;22.262;114.192;2022-12-07T14:19:58;16.60;99.90
41435;DHT22;27177;22.262;114.192;2022-12-07T14:22:28;16.60;99.90
41435;DHT22;27177;22.262;114.192;2022-12-07T14:27:32;16.60;99.90
41435;DHT22;27177;22.262;114.192;2022-12-07T14:30:02;16.60;99.90
41435;DHT22;27177;22.262;114.192;2022-12-07T14:32:30;16.60;99.90
41435;DHT22;27177;22.262;114.192;2022-12-07T14:35:03;16.60;99.90
41435;DHT22;27177;22.262;114.192;2022-12-07T14:37:34;16.60;99.90
41435;DHT22;27177;22.262;114.192;2022-12-07T14:40:01;16.60;99.90
41435;DHT22;27177;22.262;114.192;2022-12-07T14:42:30;16.60;99.90
41435;DHT22;27177;22.262;114.192;2022-12-07T14:44:58;16.60;99.90
41435;DHT22;27177;22.262;114.192;2022-12-07T14:47:26;16.60;99.90
41435;DHT22;27177;22.262;114.192;2022-12-07T14:49:59;16.60;99.90
41435;DHT22;27177;22.262;114.192;2022-12-07T14:52:28;16.60;99.90
41435;DHT22;27177;22.262;114.192;2022-12-07T14:54:56;16.60;99.90
41435;DHT22;27177;22.262;114.192;2022-12-07T14:57:23;16.60;99.90
41435;DHT22;27177;22.262;114.192;2022-12-07T14:59:50;16.60;99.90
41435;DHT22;27177;22.262;114.192;2022-12-07T15:02:17;16.60;99.90
41435;DHT22;27177;22.262;114.192;2022-12-07T15:04:43;16.60;99.90
41435;DHT22;27177;22.262;114.192;2022-12-07T15:07:19;16.60;99.90
41435;DHT22;27177;22.262;114.192;2022-12-07T15:09:47;16.50;99.90
41435;DHT22;27177;22.262;114.192;2022-12-07T15:12:14;16.50;99.90
41435;DHT22;27177;22.262;114.192;2022-12-07T15:14:41;16.50;99.90
41435;DHT22;27177;22.262;114.192;2022-12-07T15:17:11;16.50;99.90
41435;DHT22;27177;22.262;114.192;2022-12-07T15:19:38;16.50;99.90
41435;DHT22;27177;22.262;114.192;2022-12-07T15:22:05;16.40;99.90
41435;DHT22;27177;22.262;114.192;2022-12-07T15:24:48;16.50;99.90
41435;DHT22;27177;22.262;114.192;2022-12-07T15:27:15;16.50;99.90
41435;DHT22;27177;22.262;114.192;2022-12-07T15:29:41;16.50;99.90
41435;DHT22;27177;22.262;114.192;2022-12-07T15:32:08;16.50;99.90
41435;DHT22;27177;22.262;114.192;2022-12-07T15:34:35;16.50;99.90
41435;DHT22;27177;22.262;114.192;2022-12-07T15:37:02;16.50;99.90
41435;DHT22;27177;22.262;114.192;2022-12-07T15:39:29;16.60;99.90
41435;DHT22;27177;22.262;114.192;2022-12-07T15:41:56;16.60;99.90
41435;DHT22;27177;22.262;114.192;2022-12-07T15:44:23;16.60;99.90
41435;DHT22;27177;22.262;114.192;2022-12-07T15:47:08;16.60;99.90
41435;DHT22;27177;22.262;114.192;2022-12-07T15:49:35;16.60;99.90
41435;DHT22;27177;22.262;114.192;2022-12-07T15:52:02;16.60;99.90
41435;DHT22;27177;22.262;114.192;2022-12-07T15:54:30;16.60;99.90
41435;DHT22;27177;22.262;114.192;2022-12-07T15:56:58;16.60;99.90
41435;DHT22;27177;22.262;114.192;2022-12-07T15:59:26;16.60;99.90
41435;DHT22;27177;22.262;114.192;2022-12-07T16:01:54;16.60;99.90
41435;DHT22;27177;22.262;114.192;2022-12-07T16:04:21;16.60;99.90
41435;DHT22;27177;22.262;114.192;2022-12-07T16:06:47;16.60;99.90
41435;DHT22;27177;22.262;114.192;2022-12-07T16:09:16;16.60;99.90
41435;DHT22;27177;22.262;114.192;2022-12-07T16:11:42;16.60;99.90
41435;DHT22;27177;22.262;114.192;2022-12-07T16:14:09;16.60;99.90
41435;DHT22;27177;22.262;114.192;2022-12-07T16:16:36;16.60;99.90
41435;DHT22;27177;22.262;114.192;2022-12-07T16:19:03;16.60;99.90
41435;DHT22;27177;22.262;114.192;2022-12-07T16:21:29;16.60;99.90
41435;DHT22;27177;22.262;114.192;2022-12-07T16:23:58;16.50;99.90
41435;DHT22;27177;22.262;114.192;2022-12-07T16:26:25;16.50;99.90
41435;DHT22;27177;22.262;114.192;2022-12-07T16:28:53;16.40;99.90
41435;DHT22;27177;22.262;114.192;2022-12-07T16:31:22;16.40;99.90
41435;DHT22;27177;22.262;114.192;2022-12-07T16:33:50;16.40;99.90
41435;DHT22;27177;22.262;114.192;2022-12-07T16:36:19;16.40;99.90
41435;DHT22;27177;22.262;114.192;2022-12-07T16:38:48;16.40;99.90
41435;DHT22;27177;22.262;114.192;2022-12-07T16:41:14;16.40;99.90
41435;DHT22;27177;22.262;114.192;2022-12-07T16:43:41;16.30;99.90
41435;DHT22;27177;22.262;114.192;2022-12-07T16:46:08;16.30;99.90
41435;DHT22;27177;22.262;114.192;2022-12-07T16:48:36;16.30;99.90
41435;DHT22;27177;22.262;114.192;2022-12-07T16:51:06;16.40;99.90
41435;DHT22;27177;22.262;114.192;2022-12-07T16:53:35;16.30;99.90
41435;DHT22;27177;22.262;114.192;2022-12-07T16:56:02;16.30;99.90
41435;DHT22;27177;22.262;114.192;2022-12-07T16:58:29;16.30;99.90
41435;DHT22;27177;22.262;114.192;2022-12-07T17:00:57;16.30;99.90
41435;DHT22;27177;22.262;114.192;2022-12-07T17:03:23;16.30;99.90
41435;DHT22;27177;22.262;114.192;2022-12-07T17:05:50;16.40;99.90
41435;DHT22;27177;22.262;114.192;2022-12-07T17:08:17;16.40;99.90
41435;DHT22;27177;22.262;114.192;2022-12-07T17:13:19;16.50;99.90
41435;DHT22;27177;22.262;114.192;2022-12-07T17:16:06;16.50;99.90
41435;DHT22;27177;22.262;114.192;2022-12-07T17:18:34;16.50;99.90
41435;DHT22;27177;22.262;114.192;2022-12-07T17:21:06;16.50;99.90
41435;DHT22;27177;22.262;114.192;2022-12-07T17:23:35;16.50;99.90
41435;DHT22;27177;22.262;114.192;2022-12-07T17:26:08;16.60;99.90
41435;DHT22;27177;22.262;114.192;2022-12-07T17:28:35;16.60;99.90
41435;DHT22;27177;22.262;114.192;2022-12-07T17:31:06;16.70;99.90
41435;DHT22;27177;22.262;114.192;2022-12-07T17:33:34;16.60;99.90
41435;DHT22;27177;22.262;114.192;2022-12-07T17:36:01;16.60;99.90
41435;DHT22;27177;22.262;114.192;2022-12-07T17:38:35;16.70;99.90
41435;DHT22;27177;22.262;114.192;2022-12-07T17:41:11;16.70;99.90
41435;DHT22;27177;22.262;114.192;2022-12-07T17:43:59;16.70;99.90
41435;DHT22;27177;22.262;114.192;2022-12-07T17:46:27;16.70;99.90
41435;DHT22;27177;22.262;114.192;2022-12-07T17:48:57;16.80;99.90
41435;DHT22;27177;22.262;114.192;2022-12-07T17:51:24;16.80;99.90
41435;DHT22;27177;22.262;114.192;2022-12-07T17:54:11;16.80;99.90
41435;DHT22;27177;22.262;114.192;2022-12-07T17:59:14;16.90;99.90
41435;DHT22;27177;22.262;114.192;2022-12-07T18:01:41;16.90;99.90
41435;DHT22;27177;22.262;114.192;2022-12-07T18:04:08;16.90;99.90
41435;DHT22;27177;22.262;114.192;2022-12-07T18:06:36;17.00;99.90